• Join FlightAware (Why Join?)
  • Login
  • US Flag 
Rudolph Flight #1: Arrived! 
11:44AM EST


 

Airport Tracker/Info


-or-


 

Live Flight TrackerFlight Track Log ✈ CNS794 ✈ 08-Dec-2013 ✈ KDYL - KPSM

Flight Track Log - Related Links

Times and Time Zones

All times are in EST time to prevent confusion due to time zone crossing. See the CNS794 flight status page for this flight to view local times or setup timezone preferences in your user account.

Time Position Orientation Groundspeed Altitude Reporting Facility
EST Latitude Longitude Course Direction KTS MPH feet Rate Location/Type
11:09AM 40.4000 -74.9500 63° Northeast 152 175 3,000  Level Philadelphia TRACON
11:10AM 40.3500 -74.9333 166° South 161 185 3,000  Level Philadelphia TRACON
11:11AM 40.3000 -74.9167 166° South 197 227 3,000  Level Philadelphia TRACON
11:13AM 40.2353 -74.7731 121° Southeast 215 247 3,000  Level New York Center
11:14AM 40.2294 -74.7022 96° East 220 253 3,000  Level New York Center
11:15AM 40.2197 -74.6200 99° East 220 253 3,000  Level New York Center
11:16AM 40.2097 -74.5406 99° East 220 253 3,000 240 Level New York Center
11:17AM 40.1911 -74.4664 108° East 207 238 3,500 660 Climbing New York Center
11:18AM 40.1664 -74.3889 113° Southeast 194 223 4,400 720 Climbing New York Center
11:19AM 40.1497 -74.3256 109° East 199 229 5,000 300 Climbing New York Center
11:20AM 40.1289 -74.2567 112° Southeast 221 254 5,000  Level New York Center
11:21AM 40.1058 -74.1850 113° Southeast 227 261 5,000  Level New York Center
11:22AM 40.0772 -74.0939 112° Southeast 238 274 5,100 420 Climbing New York Center
11:23AM 40.0544 -74.0197 112° Southeast 238 274 5,900 600 Climbing New York Center
11:24AM 40.0292 -73.9453 114° Southeast 227 261 6,400 660 Climbing New York Center
11:25AM 40.0103 -73.8794 111° Southeast 222 255 7,300 780 Climbing New York Center
11:26AM 39.9850 -73.8025 113° Southeast 222 255 8,000 360 Climbing New York Center
11:27AM 39.9894 -73.7106 86° East 222 255 8,100 660 Climbing New York Center
11:28AM 39.9981 -73.6242 83° East 235 270 9,400 1,440 Climbing New York Center
11:29AM 40.0208 -73.5356 71° East 233 268 11,000 1,140 Climbing New York Center
11:32AM 40.1378 -73.4189 37° Northeast 265 305 13,300 1,080 Climbing Boston Center
11:33AM 40.2089 -73.3492 37° Northeast 266 306 14,600 1,200 Climbing Boston Center
11:34AM 40.2686 -73.2908 37° Northeast 269 310 15,800 960 Climbing Boston Center
11:35AM 40.3272 -73.2347 36° Northeast 262 302 16,600 540 Climbing Boston Center
11:36AM 40.3864 -73.1750 38° Northeast 268 308 17,000 180 Climbing Boston Center
11:37AM 40.4522 -73.1097 37° Northeast 297 342 17,000  Level Boston Center
11:38AM 40.5194 -73.0442 37° Northeast 304 350 17,000  Level Boston Center
11:39AM 40.5878 -72.9772 37° Northeast 309 356 17,000  Level Boston Center
11:40AM 40.6558 -72.9100 37° Northeast 308 354 17,000  Level Boston Center
11:41AM 40.7250 -72.8417 37° Northeast 311 358 17,000  Level Boston Center
11:42AM 40.7922 -72.7747 37° Northeast 305 351 17,000  Level Boston Center
11:43AM 40.8706 -72.6975 37° Northeast 305 351 17,000  Level Boston Center
11:44AM 40.9344 -72.6319 38° Northeast 308 354 17,000  Level Boston Center
11:45AM 41.0008 -72.5658 37° Northeast 301 346 17,000  Level Boston Center
11:46AM 41.0675 -72.4989 37° Northeast 301 346 17,000  Level Boston Center
11:47AM 41.1328 -72.4333 37° Northeast 297 342 17,000  Level Boston Center
11:48AM 41.1967 -72.3683 37° Northeast 293 337 17,000  Level Boston Center
11:49AM 41.2725 -72.2908 38° Northeast 292 336 17,000  Level Boston Center
11:50AM 41.3378 -72.2289 35° Northeast 289 333 17,000  Level Boston Center
11:51AM 41.4053 -72.1750 31° Northeast 285 328 17,000  Level Boston Center
11:52AM 41.4789 -72.1183 30° Northeast 286 329 17,000  Level Boston Center
11:53AM 41.5461 -72.0636 31° Northeast 284 327 17,000  Level Boston Center
11:54AM 41.6139 -72.0100 31° Northeast 285 328 17,000  Level Boston Center
11:55AM 41.6819 -71.9569 30° Northeast 285 328 17,000  Level Boston Center
11:56AM 41.7542 -71.8997 31° Northeast 282 325 17,000  Level Boston Center
11:57AM 41.8217 -71.8461 31° Northeast 282 325 17,000 -60 Level Boston Center
11:58AM 41.8892 -71.7917 31° Northeast 282 325 16,900 -660 Descending Boston Center
11:59AM 41.9614 -71.7344 30° Northeast 298 343 15,700 -1,140 Descending Boston Center
12:00PM 42.0394 -71.6722 31° Northeast 301 346 14,600 -1,080 Descending Boston Center
12:01PM 42.1056 -71.6175 32° Northeast 283 326 13,600 -780 Descending Boston Center
12:02PM 42.1714 -71.5653 30° Northeast 276 318 13,000 -300 Descending Boston Center
12:03PM 42.2356 -71.5147 30° Northeast 269 310 13,000  Level Boston Center
12:04PM 42.3042 -71.4592 31° Northeast 267 307 13,000  Level Boston Center
12:06PM 42.3833 -71.3833 35° Northeast 267 307 13,000  Level KA90
12:07PM 42.4500 -71.3333 29° Northeast 279 321 13,000 -540 Level KA90
12:08PM 42.4667 -71.2000 80° East 304 350 11,900 -1,080 Descending KA90
12:09PM 42.5167 -71.1500 36° Northeast 279 321 10,900 -1,140 Descending KA90
12:10PM 42.5833 -71.1000 29° Northeast 251 289 9,700 -1,140 Descending KA90
12:10PM 42.6297 -71.0772 20° North 250 288 8,900 -1,140 Descending Boston Center
12:11PM 42.6936 -71.0422 22° Northeast 248 285 7,800 -1,080 Descending Boston Center
12:12PM 42.7567 -71.0064 23° Northeast 247 284 6,700 -1,080 Descending Boston Center
12:13PM 42.8197 -70.9708 22° Northeast 246 283 5,600 -1,140 Descending Boston Center
12:15PM 42.8708 -70.9028 44° Northeast 240 276 4,400 -1,200 Descending Boston Center
12:16PM 42.9153 -70.8500 41° Northeast 214 246 3,200 -1,140 Descending Boston Center
12:17PM 42.9581 -70.8056 37° Northeast 195 224 2,200 -960 Descending Boston Center
12:18PM 43.0000 -70.7667 34° Northeast 161 185 1,200 -720 Descending KA90
12:19PM 43.0333 -70.7833 340° North 100 115 800 -420 Descending KA90
12:20PM 43.0500 -70.8000 324° Northwest 97 112 400 -420 Descending KA90